sensor_id;sensor_type;location;lat;lon;timestamp;P1;durP1;ratioP1;P2;durP2;ratioP2
40745;SDS011;26454;51.164;4.488;2023-08-17T00:02:21;5.50;;;3.85;;
40745;SDS011;26454;51.164;4.488;2023-08-17T00:04:47;6.43;;;3.78;;
40745;SDS011;26454;51.164;4.488;2023-08-17T00:07:13;4.60;;;3.80;;
40745;SDS011;26454;51.164;4.488;2023-08-17T00:09:39;5.65;;;3.72;;
40745;SDS011;26454;51.164;4.488;2023-08-17T00:12:06;6.60;;;3.55;;
40745;SDS011;26454;51.164;4.488;2023-08-17T00:14:32;3.97;;;3.30;;
40745;SDS011;26454;51.164;4.488;2023-08-17T00:16:58;5.35;;;3.22;;
40745;SDS011;26454;51.164;4.488;2023-08-17T00:19:24;5.57;;;3.40;;
40745;SDS011;26454;51.164;4.488;2023-08-17T00:21:50;7.88;;;3.45;;
40745;SDS011;26454;51.164;4.488;2023-08-17T00:24:17;6.57;;;4.03;;
40745;SDS011;26454;51.164;4.488;2023-08-17T00:26:43;5.78;;;2.83;;
40745;SDS011;26454;51.164;4.488;2023-08-17T00:29:09;6.63;;;4.40;;
40745;SDS011;26454;51.164;4.488;2023-08-17T00:31:35;4.20;;;2.85;;
40745;SDS011;26454;51.164;4.488;2023-08-17T00:34:02;5.10;;;3.38;;
40745;SDS011;26454;51.164;4.488;2023-08-17T00:36:28;4.88;;;3.47;;
40745;SDS011;26454;51.164;4.488;2023-08-17T00:38:55;6.90;;;3.75;;
40745;SDS011;26454;51.164;4.488;2023-08-17T00:41:20;4.13;;;3.67;;
40745;SDS011;26454;51.164;4.488;2023-08-17T00:43:46;4.22;;;3.10;;
40745;SDS011;26454;51.164;4.488;2023-08-17T00:46:12;3.75;;;3.05;;
40745;SDS011;26454;51.164;4.488;2023-08-17T00:48:39;3.65;;;3.35;;
40745;SDS011;26454;51.164;4.488;2023-08-17T00:51:05;6.35;;;4.10;;
40745;SDS011;26454;51.164;4.488;2023-08-17T00:53:31;5.18;;;3.42;;
40745;SDS011;26454;51.164;4.488;2023-08-17T00:55:58;5.43;;;3.83;;
40745;SDS011;26454;51.164;4.488;2023-08-17T00:58:24;6.38;;;3.80;;
40745;SDS011;26454;51.164;4.488;2023-08-17T01:00:50;8.23;;;4.75;;
40745;SDS011;26454;51.164;4.488;2023-08-17T01:03:16;9.07;;;4.07;;
40745;SDS011;26454;51.164;4.488;2023-08-17T01:05:43;4.88;;;3.75;;
40745;SDS011;26454;51.164;4.488;2023-08-17T01:08:09;7.07;;;3.90;;
40745;SDS011;26454;51.164;4.488;2023-08-17T01:13:12;5.75;;;3.95;;
40745;SDS011;26454;51.164;4.488;2023-08-17T01:15:42;4.00;;;3.65;;
40745;SDS011;26454;51.164;4.488;2023-08-17T01:20:48;9.75;;;4.10;;
40745;SDS011;26454;51.164;4.488;2023-08-17T01:23:14;7.53;;;3.63;;
40745;SDS011;26454;51.164;4.488;2023-08-17T01:25:41;5.55;;;3.80;;
40745;SDS011;26454;51.164;4.488;2023-08-17T01:28:07;6.07;;;3.55;;
40745;SDS011;26454;51.164;4.488;2023-08-17T01:30:34;5.40;;;3.65;;
40745;SDS011;26454;51.164;4.488;2023-08-17T01:33:02;4.95;;;3.53;;
40745;SDS011;26454;51.164;4.488;2023-08-17T01:35:30;8.80;;;4.18;;
40745;SDS011;26454;51.164;4.488;2023-08-17T01:38:00;6.07;;;4.00;;
40745;SDS011;26454;51.164;4.488;2023-08-17T01:40:29;9.07;;;3.60;;
40745;SDS011;26454;51.164;4.488;2023-08-17T01:42:57;8.73;;;3.38;;
40745;SDS011;26454;51.164;4.488;2023-08-17T01:45:24;4.85;;;4.28;;
40745;SDS011;26454;51.164;4.488;2023-08-17T01:47:50;5.82;;;3.72;;
40745;SDS011;26454;51.164;4.488;2023-08-17T01:50:16;5.72;;;3.47;;
40745;SDS011;26454;51.164;4.488;2023-08-17T01:52:42;6.55;;;3.88;;
40745;SDS011;26454;51.164;4.488;2023-08-17T01:55:08;6.78;;;3.90;;
40745;SDS011;26454;51.164;4.488;2023-08-17T01:57:34;8.38;;;3.95;;
40745;SDS011;26454;51.164;4.488;2023-08-17T02:00:02;7.30;;;4.53;;
40745;SDS011;26454;51.164;4.488;2023-08-17T02:02:28;5.32;;;3.63;;
40745;SDS011;26454;51.164;4.488;2023-08-17T02:04:54;8.20;;;4.03;;
40745;SDS011;26454;51.164;4.488;2023-08-17T02:07:20;3.78;;;3.13;;
40745;SDS011;26454;51.164;4.488;2023-08-17T02:09:46;9.32;;;5.38;;
40745;SDS011;26454;51.164;4.488;2023-08-17T02:12:12;6.40;;;3.78;;
40745;SDS011;26454;51.164;4.488;2023-08-17T02:14:40;10.25;;;4.07;;
40745;SDS011;26454;51.164;4.488;2023-08-17T02:17:06;9.88;;;3.90;;
40745;SDS011;26454;51.164;4.488;2023-08-17T02:19:33;6.38;;;3.80;;
40745;SDS011;26454;51.164;4.488;2023-08-17T02:21:59;5.63;;;3.40;;
40745;SDS011;26454;51.164;4.488;2023-08-17T02:24:25;7.75;;;4.38;;
40745;SDS011;26454;51.164;4.488;2023-08-17T02:26:51;6.75;;;4.43;;
40745;SDS011;26454;51.164;4.488;2023-08-17T02:29:17;7.72;;;3.25;;
40745;SDS011;26454;51.164;4.488;2023-08-17T02:31:43;6.55;;;3.80;;
40745;SDS011;26454;51.164;4.488;2023-08-17T02:34:09;5.10;;;3.95;;
40745;SDS011;26454;51.164;4.488;2023-08-17T02:36:35;7.30;;;4.22;;
40745;SDS011;26454;51.164;4.488;2023-08-17T02:39:01;7.40;;;4.55;;
40745;SDS011;26454;51.164;4.488;2023-08-17T02:41:28;6.88;;;4.40;;
40745;SDS011;26454;51.164;4.488;2023-08-17T02:43:55;5.43;;;3.65;;
40745;SDS011;26454;51.164;4.488;2023-08-17T02:46:21;7.05;;;4.10;;
40745;SDS011;26454;51.164;4.488;2023-08-17T02:48:47;6.82;;;4.18;;
40745;SDS011;26454;51.164;4.488;2023-08-17T02:51:14;7.60;;;4.10;;
40745;SDS011;26454;51.164;4.488;2023-08-17T02:53:41;6.20;;;4.07;;
40745;SDS011;26454;51.164;4.488;2023-08-17T02:56:07;6.97;;;3.97;;
40745;SDS011;26454;51.164;4.488;2023-08-17T02:58:37;10.38;;;4.80;;
40745;SDS011;26454;51.164;4.488;2023-08-17T03:01:05;6.13;;;4.45;;
40745;SDS011;26454;51.164;4.488;2023-08-17T03:03:31;7.53;;;4.60;;
40745;SDS011;26454;51.164;4.488;2023-08-17T03:05:57;7.57;;;4.35;;
40745;SDS011;26454;51.164;4.488;2023-08-17T03:08:23;9.27;;;4.50;;
40745;SDS011;26454;51.164;4.488;2023-08-17T03:10:49;6.28;;;4.20;;
40745;SDS011;26454;51.164;4.488;2023-08-17T03:13:15;9.07;;;5.28;;
40745;SDS011;26454;51.164;4.488;2023-08-17T03:15:42;7.15;;;3.97;;
40745;SDS011;26454;51.164;4.488;2023-08-17T03:18:08;8.52;;;6.63;;
40745;SDS011;26454;51.164;4.488;2023-08-17T03:20:34;7.43;;;5.07;;
40745;SDS011;26454;51.164;4.488;2023-08-17T03:23:00;9.30;;;4.82;;
40745;SDS011;26454;51.164;4.488;2023-08-17T03:25:26;5.38;;;4.85;;
40745;SDS011;26454;51.164;4.488;2023-08-17T03:27:52;12.02;;;5.20;;
40745;SDS011;26454;51.164;4.488;2023-08-17T03:30:18;7.25;;;5.20;;
40745;SDS011;26454;51.164;4.488;2023-08-17T03:32:44;5.40;;;4.68;;
40745;SDS011;26454;51.164;4.488;2023-08-17T03:35:10;11.52;;;5.57;;
40745;SDS011;26454;51.164;4.488;2023-08-17T03:37:38;7.95;;;4.95;;
40745;SDS011;26454;51.164;4.488;2023-08-17T03:40:04;9.68;;;5.40;;
40745;SDS011;26454;51.164;4.488;2023-08-17T03:42:30;13.00;;;5.15;;
40745;SDS011;26454;51.164;4.488;2023-08-17T03:44:56;5.38;;;4.50;;
40745;SDS011;26454;51.164;4.488;2023-08-17T03:47:22;8.07;;;5.35;;
40745;SDS011;26454;51.164;4.488;2023-08-17T03:49:48;5.40;;;4.90;;
40745;SDS011;26454;51.164;4.488;2023-08-17T03:52:14;5.78;;;5.07;;
40745;SDS011;26454;51.164;4.488;2023-08-17T03:54:40;6.45;;;5.25;;
40745;SDS011;26454;51.164;4.488;2023-08-17T03:57:06;8.68;;;5.03;;
40745;SDS011;26454;51.164;4.488;2023-08-17T03:59:33;7.80;;;4.70;;
40745;SDS011;26454;51.164;4.488;2023-08-17T04:01:59;11.77;;;5.10;;
40745;SDS011;26454;51.164;4.488;2023-08-17T04:04:25;9.45;;;4.65;;
40745;SDS011;26454;51.164;4.488;2023-08-17T04:06:51;10.65;;;4.63;;
40745;SDS011;26454;51.164;4.488;2023-08-17T04:09:17;8.80;;;4.20;;
40745;SDS011;26454;51.164;4.488;2023-08-17T04:11:44;8.63;;;4.68;;
40745;SDS011;26454;51.164;4.488;2023-08-17T04:14:10;5.88;;;3.80;;
40745;SDS011;26454;51.164;4.488;2023-08-17T04:16:37;7.47;;;4.72;;
40745;SDS011;26454;51.164;4.488;2023-08-17T04:19:03;5.82;;;4.32;;
40745;SDS011;26454;51.164;4.488;2023-08-17T04:21:29;4.85;;;3.80;;
40745;SDS011;26454;51.164;4.488;2023-08-17T04:23:55;7.97;;;4.38;;
40745;SDS011;26454;51.164;4.488;2023-08-17T04:26:22;4.97;;;4.25;;
40745;SDS011;26454;51.164;4.488;2023-08-17T04:28:48;10.43;;;4.75;;
40745;SDS011;26454;51.164;4.488;2023-08-17T04:31:14;8.35;;;4.65;;
40745;SDS011;26454;51.164;4.488;2023-08-17T04:33:42;9.55;;;4.03;;
40745;SDS011;26454;51.164;4.488;2023-08-17T04:36:08;7.93;;;4.50;;
40745;SDS011;26454;51.164;4.488;2023-08-17T04:38:34;5.22;;;3.30;;
40745;SDS011;26454;51.164;4.488;2023-08-17T04:41:00;6.55;;;4.43;;
40745;SDS011;26454;51.164;4.488;2023-08-17T04:43:26;5.22;;;4.07;;
40745;SDS011;26454;51.164;4.488;2023-08-17T04:45:52;7.40;;;4.15;;
40745;SDS011;26454;51.164;4.488;2023-08-17T04:48:18;7.78;;;3.72;;
40745;SDS011;26454;51.164;4.488;2023-08-17T04:50:44;5.53;;;4.57;;
40745;SDS011;26454;51.164;4.488;2023-08-17T04:53:10;4.50;;;4.07;;
40745;SDS011;26454;51.164;4.488;2023-08-17T04:55:36;5.60;;;4.20;;
40745;SDS011;26454;51.164;4.488;2023-08-17T04:58:02;5.63;;;3.22;;
40745;SDS011;26454;51.164;4.488;2023-08-17T05:00:29;4.28;;;3.53;;
40745;SDS011;26454;51.164;4.488;2023-08-17T05:02:55;7.97;;;4.32;;
40745;SDS011;26454;51.164;4.488;2023-08-17T05:05:22;7.30;;;3.53;;
40745;SDS011;26454;51.164;4.488;2023-08-17T05:07:48;7.53;;;3.70;;
40745;SDS011;26454;51.164;4.488;2023-08-17T05:10:14;8.50;;;3.78;;
40745;SDS011;26454;51.164;4.488;2023-08-17T05:12:40;7.43;;;3.97;;
40745;SDS011;26454;51.164;4.488;2023-08-17T05:15:06;5.97;;;3.63;;
40745;SDS011;26454;51.164;4.488;2023-08-17T05:17:32;6.55;;;3.75;;
40745;SDS011;26454;51.164;4.488;2023-08-17T05:19:58;8.38;;;4.25;;
40745;SDS011;26454;51.164;4.488;2023-08-17T05:22:24;6.53;;;3.40;;
40745;SDS011;26454;51.164;4.488;2023-08-17T05:24:50;8.40;;;4.40;;
40745;SDS011;26454;51.164;4.488;2023-08-17T05:27:16;4.80;;;3.70;;
40745;SDS011;26454;51.164;4.488;2023-08-17T05:29:42;6.65;;;3.55;;
40745;SDS011;26454;51.164;4.488;2023-08-17T05:32:09;5.15;;;4.00;;
40745;SDS011;26454;51.164;4.488;2023-08-17T05:34:35;6.20;;;3.60;;
40745;SDS011;26454;51.164;4.488;2023-08-17T05:37:01;5.40;;;3.28;;
40745;SDS011;26454;51.164;4.488;2023-08-17T05:39:28;4.30;;;3.08;;
40745;SDS011;26454;51.164;4.488;2023-08-17T05:41:54;6.55;;;3.20;;
40745;SDS011;26454;51.164;4.488;2023-08-17T05:44:20;10.18;;;3.35;;
40745;SDS011;26454;51.164;4.488;2023-08-17T05:46:46;4.57;;;3.20;;
40745;SDS011;26454;51.164;4.488;2023-08-17T05:49:13;4.72;;;3.22;;
40745;SDS011;26454;51.164;4.488;2023-08-17T05:51:39;7.03;;;3.80;;
40745;SDS011;26454;51.164;4.488;2023-08-17T05:54:05;6.20;;;3.75;;
40745;SDS011;26454;51.164;4.488;2023-08-17T05:56:32;6.22;;;3.55;;
40745;SDS011;26454;51.164;4.488;2023-08-17T05:58:58;6.38;;;4.05;;
40745;SDS011;26454;51.164;4.488;2023-08-17T06:01:24;5.32;;;3.15;;
40745;SDS011;26454;51.164;4.488;2023-08-17T06:03:51;8.30;;;3.58;;
40745;SDS011;26454;51.164;4.488;2023-08-17T06:06:17;5.80;;;3.65;;
40745;SDS011;26454;51.164;4.488;2023-08-17T06:08:43;8.85;;;3.97;;
40745;SDS011;26454;51.164;4.488;2023-08-17T06:11:09;7.25;;;4.00;;
40745;SDS011;26454;51.164;4.488;2023-08-17T06:13:35;7.18;;;4.18;;
40745;SDS011;26454;51.164;4.488;2023-08-17T06:16:01;5.03;;;3.78;;
40745;SDS011;26454;51.164;4.488;2023-08-17T06:18:28;6.18;;;3.45;;
40745;SDS011;26454;51.164;4.488;2023-08-17T06:20:54;6.25;;;3.40;;
40745;SDS011;26454;51.164;4.488;2023-08-17T06:23:20;9.00;;;3.75;;
40745;SDS011;26454;51.164;4.488;2023-08-17T06:25:46;7.75;;;3.40;;
40745;SDS011;26454;51.164;4.488;2023-08-17T06:28:12;9.15;;;3.95;;
40745;SDS011;26454;51.164;4.488;2023-08-17T06:30:38;10.43;;;3.50;;
40745;SDS011;26454;51.164;4.488;2023-08-17T06:33:04;7.07;;;4.03;;
40745;SDS011;26454;51.164;4.488;2023-08-17T06:35:30;5.78;;;3.85;;
40745;SDS011;26454;51.164;4.488;2023-08-17T06:37:56;9.35;;;3.92;;
40745;SDS011;26454;51.164;4.488;2023-08-17T06:40:23;5.82;;;3.85;;
40745;SDS011;26454;51.164;4.488;2023-08-17T06:42:49;7.68;;;3.42;;
40745;SDS011;26454;51.164;4.488;2023-08-17T06:45:15;6.15;;;3.15;;
40745;SDS011;26454;51.164;4.488;2023-08-17T06:47:43;8.50;;;4.00;;
40745;SDS011;26454;51.164;4.488;2023-08-17T06:50:10;7.25;;;3.50;;
40745;SDS011;26454;51.164;4.488;2023-08-17T06:52:36;7.28;;;3.95;;
40745;SDS011;26454;51.164;4.488;2023-08-17T06:55:02;6.53;;;3.60;;
40745;SDS011;26454;51.164;4.488;2023-08-17T06:57:28;7.60;;;3.28;;
40745;SDS011;26454;51.164;4.488;2023-08-17T06:59:54;7.53;;;4.47;;
40745;SDS011;26454;51.164;4.488;2023-08-17T07:02:20;7.13;;;3.17;;
40745;SDS011;26454;51.164;4.488;2023-08-17T07:04:46;12.23;;;3.65;;
40745;SDS011;26454;51.164;4.488;2023-08-17T07:07:12;6.05;;;4.05;;
40745;SDS011;26454;51.164;4.488;2023-08-17T07:09:39;7.88;;;4.40;;
40745;SDS011;26454;51.164;4.488;2023-08-17T07:12:05;8.95;;;3.80;;
40745;SDS011;26454;51.164;4.488;2023-08-17T07:14:31;8.73;;;3.97;;
40745;SDS011;26454;51.164;4.488;2023-08-17T07:16:58;5.20;;;3.63;;
40745;SDS011;26454;51.164;4.488;2023-08-17T07:19:24;6.65;;;3.53;;
40745;SDS011;26454;51.164;4.488;2023-08-17T07:21:50;6.88;;;3.63;;
40745;SDS011;26454;51.164;4.488;2023-08-17T07:24:17;6.70;;;4.45;;
40745;SDS011;26454;51.164;4.488;2023-08-17T07:26:43;5.60;;;3.40;;
40745;SDS011;26454;51.164;4.488;2023-08-17T07:29:09;6.22;;;3.83;;
40745;SDS011;26454;51.164;4.488;2023-08-17T07:31:36;5.13;;;3.35;;
40745;SDS011;26454;51.164;4.488;2023-08-17T07:34:03;10.05;;;4.18;;
40745;SDS011;26454;51.164;4.488;2023-08-17T07:36:29;6.70;;;3.53;;
40745;SDS011;26454;51.164;4.488;2023-08-17T07:38:55;5.57;;;4.22;;
40745;SDS011;26454;51.164;4.488;2023-08-17T07:41:21;5.65;;;4.22;;
40745;SDS011;26454;51.164;4.488;2023-08-17T07:43:47;8.30;;;4.18;;
40745;SDS011;26454;51.164;4.488;2023-08-17T07:46:13;7.13;;;4.20;;
40745;SDS011;26454;51.164;4.488;2023-08-17T07:48:42;7.60;;;3.55;;
40745;SDS011;26454;51.164;4.488;2023-08-17T07:51:08;8.93;;;4.25;;
40745;SDS011;26454;51.164;4.488;2023-08-17T07:53:34;15.38;;;4.80;;
40745;SDS011;26454;51.164;4.488;2023-08-17T07:56:00;6.88;;;4.03;;
40745;SDS011;26454;51.164;4.488;2023-08-17T07:58:26;9.88;;;4.28;;
40745;SDS011;26454;51.164;4.488;2023-08-17T08:00:53;5.63;;;3.97;;
40745;SDS011;26454;51.164;4.488;2023-08-17T08:03:19;5.90;;;3.40;;
40745;SDS011;26454;51.164;4.488;2023-08-17T08:05:45;5.18;;;4.40;;
40745;SDS011;26454;51.164;4.488;2023-08-17T08:08:11;6.18;;;4.45;;
40745;SDS011;26454;51.164;4.488;2023-08-17T08:10:37;7.88;;;4.45;;
40745;SDS011;26454;51.164;4.488;2023-08-17T08:13:03;6.03;;;3.90;;
40745;SDS011;26454;51.164;4.488;2023-08-17T08:15:30;7.63;;;4.65;;
40745;SDS011;26454;51.164;4.488;2023-08-17T08:17:56;4.97;;;3.85;;
40745;SDS011;26454;51.164;4.488;2023-08-17T08:20:22;7.68;;;4.30;;
40745;SDS011;26454;51.164;4.488;2023-08-17T08:22:48;7.13;;;4.38;;
40745;SDS011;26454;51.164;4.488;2023-08-17T08:25:14;11.30;;;4.25;;
40745;SDS011;26454;51.164;4.488;2023-08-17T08:27:40;8.23;;;4.88;;
40745;SDS011;26454;51.164;4.488;2023-08-17T08:30:06;11.18;;;5.55;;
40745;SDS011;26454;51.164;4.488;2023-08-17T08:32:32;9.02;;;4.40;;
40745;SDS011;26454;51.164;4.488;2023-08-17T08:34:58;7.68;;;4.95;;
40745;SDS011;26454;51.164;4.488;2023-08-17T08:37:24;12.20;;;4.88;;
40745;SDS011;26454;51.164;4.488;2023-08-17T08:39:51;7.72;;;5.07;;
40745;SDS011;26454;51.164;4.488;2023-08-17T08:42:18;9.63;;;5.75;;
40745;SDS011;26454;51.164;4.488;2023-08-17T08:44:44;9.13;;;4.68;;
40745;SDS011;26454;51.164;4.488;2023-08-17T08:47:11;10.13;;;4.95;;
40745;SDS011;26454;51.164;4.488;2023-08-17T08:49:40;8.98;;;4.53;;
40745;SDS011;26454;51.164;4.488;2023-08-17T08:52:08;9.05;;;5.10;;
40745;SDS011;26454;51.164;4.488;2023-08-17T08:54:36;12.30;;;4.97;;
40745;SDS011;26454;51.164;4.488;2023-08-17T08:57:04;7.63;;;4.45;;
40745;SDS011;26454;51.164;4.488;2023-08-17T08:59:33;8.63;;;4.53;;
40745;SDS011;26454;51.164;4.488;2023-08-17T09:01:59;9.23;;;5.63;;
40745;SDS011;26454;51.164;4.488;2023-08-17T09:04:26;9.45;;;5.65;;
40745;SDS011;26454;51.164;4.488;2023-08-17T09:06:53;9.77;;;4.53;;
40745;SDS011;26454;51.164;4.488;2023-08-17T09:09:19;10.63;;;6.80;;
40745;SDS011;26454;51.164;4.488;2023-08-17T09:11:45;6.85;;;5.60;;
40745;SDS011;26454;51.164;4.488;2023-08-17T09:14:11;11.82;;;6.40;;
40745;SDS011;26454;51.164;4.488;2023-08-17T09:16:38;7.95;;;6.00;;
40745;SDS011;26454;51.164;4.488;2023-08-17T09:19:04;11.18;;;6.50;;
40745;SDS011;26454;51.164;4.488;2023-08-17T09:21:31;11.82;;;7.75;;
40745;SDS011;26454;51.164;4.488;2023-08-17T09:23:57;9.32;;;7.28;;
40745;SDS011;26454;51.164;4.488;2023-08-17T09:26:23;9.98;;;6.80;;
40745;SDS011;26454;51.164;4.488;2023-08-17T09:28:50;12.30;;;6.97;;
40745;SDS011;26454;51.164;4.488;2023-08-17T09:31:19;11.38;;;6.07;;
40745;SDS011;26454;51.164;4.488;2023-08-17T09:36:12;13.73;;;8.23;;
40745;SDS011;26454;51.164;4.488;2023-08-17T09:38:38;9.95;;;7.78;;
40745;SDS011;26454;51.164;4.488;2023-08-17T09:41:04;8.43;;;6.80;;
40745;SDS011;26454;51.164;4.488;2023-08-17T09:43:31;11.85;;;7.35;;
40745;SDS011;26454;51.164;4.488;2023-08-17T09:45:59;10.32;;;7.32;;
40745;SDS011;26454;51.164;4.488;2023-08-17T09:48:26;15.38;;;6.93;;
40745;SDS011;26454;51.164;4.488;2023-08-17T09:50:53;9.77;;;7.28;;
40745;SDS011;26454;51.164;4.488;2023-08-17T09:53:21;8.27;;;7.00;;
40745;SDS011;26454;51.164;4.488;2023-08-17T09:55:47;9.02;;;6.65;;
40745;SDS011;26454;51.164;4.488;2023-08-17T09:58:14;12.55;;;7.32;;
40745;SDS011;26454;51.164;4.488;2023-08-17T10:00:43;9.77;;;6.93;;
40745;SDS011;26454;51.164;4.488;2023-08-17T10:03:11;9.77;;;7.40;;
40745;SDS011;26454;51.164;4.488;2023-08-17T10:05:38;9.45;;;7.50;;
40745;SDS011;26454;51.164;4.488;2023-08-17T10:08:05;10.38;;;7.32;;
40745;SDS011;26454;51.164;4.488;2023-08-17T10:10:34;10.05;;;7.65;;
40745;SDS011;26454;51.164;4.488;2023-08-17T10:13:06;11.10;;;7.68;;
40745;SDS011;26454;51.164;4.488;2023-08-17T10:18:20;10.27;;;6.95;;
40745;SDS011;26454;51.164;4.488;2023-08-17T10:20:50;12.73;;;7.28;;
40745;SDS011;26454;51.164;4.488;2023-08-17T10:23:18;9.00;;;7.57;;
40745;SDS011;26454;51.164;4.488;2023-08-17T10:25:45;8.63;;;7.05;;
40745;SDS011;26454;51.164;4.488;2023-08-17T10:28:13;10.82;;;8.13;;
40745;SDS011;26454;51.164;4.488;2023-08-17T10:30:40;13.15;;;8.18;;
40745;SDS011;26454;51.164;4.488;2023-08-17T10:33:06;58.42;;;11.18;;
40745;SDS011;26454;51.164;4.488;2023-08-17T10:35:33;13.93;;;10.98;;
40745;SDS011;26454;51.164;4.488;2023-08-17T10:37:59;12.15;;;9.75;;
40745;SDS011;26454;51.164;4.488;2023-08-17T10:40:26;11.60;;;9.27;;
40745;SDS011;26454;51.164;4.488;2023-08-17T10:42:53;12.60;;;8.93;;
40745;SDS011;26454;51.164;4.488;2023-08-17T10:45:28;13.77;;;9.77;;
40745;SDS011;26454;51.164;4.488;2023-08-17T10:50:31;11.90;;;9.43;;
40745;SDS011;26454;51.164;4.488;2023-08-17T10:52:58;16.33;;;11.35;;
40745;SDS011;26454;51.164;4.488;2023-08-17T10:55:36;14.40;;;12.90;;
40745;SDS011;26454;51.164;4.488;2023-08-17T10:58:03;15.95;;;13.38;;
40745;SDS011;26454;51.164;4.488;2023-08-17T11:00:34;16.27;;;13.23;;
40745;SDS011;26454;51.164;4.488;2023-08-17T11:03:03;17.38;;;13.32;;
40745;SDS011;26454;51.164;4.488;2023-08-17T11:05:34;15.88;;;11.88;;
40745;SDS011;26454;51.164;4.488;2023-08-17T11:08:01;11.80;;;9.57;;
40745;SDS011;26454;51.164;4.488;2023-08-17T11:10:28;10.95;;;9.32;;
40745;SDS011;26454;51.164;4.488;2023-08-17T11:12:55;12.10;;;8.90;;
40745;SDS011;26454;51.164;4.488;2023-08-17T11:15:25;11.98;;;9.13;;
40745;SDS011;26454;51.164;4.488;2023-08-17T11:17:51;15.20;;;12.10;;
40745;SDS011;26454;51.164;4.488;2023-08-17T11:20:18;11.13;;;9.57;;
40745;SDS011;26454;51.164;4.488;2023-08-17T11:22:45;13.98;;;9.85;;
40745;SDS011;26454;51.164;4.488;2023-08-17T11:25:11;12.57;;;9.23;;
40745;SDS011;26454;51.164;4.488;2023-08-17T11:27:38;11.55;;;10.32;;
40745;SDS011;26454;51.164;4.488;2023-08-17T11:30:05;14.50;;;10.10;;
40745;SDS011;26454;51.164;4.488;2023-08-17T11:32:31;14.82;;;9.68;;
40745;SDS011;26454;51.164;4.488;2023-08-17T11:34:57;12.38;;;8.95;;
40745;SDS011;26454;51.164;4.488;2023-08-17T11:37:23;12.52;;;9.23;;
40745;SDS011;26454;51.164;4.488;2023-08-17T11:39:49;14.23;;;9.60;;
40745;SDS011;26454;51.164;4.488;2023-08-17T11:42:15;14.18;;;10.25;;
40745;SDS011;26454;51.164;4.488;2023-08-17T11:44:41;12.02;;;9.35;;
40745;SDS011;26454;51.164;4.488;2023-08-17T11:47:07;12.40;;;10.63;;
40745;SDS011;26454;51.164;4.488;2023-08-17T11:49:33;11.98;;;9.82;;
40745;SDS011;26454;51.164;4.488;2023-08-17T11:51:59;12.20;;;9.20;;
40745;SDS011;26454;51.164;4.488;2023-08-17T11:54:26;13.68;;;11.80;;
40745;SDS011;26454;51.164;4.488;2023-08-17T11:56:52;15.20;;;10.52;;
40745;SDS011;26454;51.164;4.488;2023-08-17T11:59:18;15.45;;;10.80;;
40745;SDS011;26454;51.164;4.488;2023-08-17T12:01:45;13.98;;;10.95;;
40745;SDS011;26454;51.164;4.488;2023-08-17T12:04:11;14.95;;;10.02;;
40745;SDS011;26454;51.164;4.488;2023-08-17T12:06:40;17.10;;;12.80;;
40745;SDS011;26454;51.164;4.488;2023-08-17T12:11:33;15.70;;;13.05;;
40745;SDS011;26454;51.164;4.488;2023-08-17T12:13:59;17.42;;;11.55;;
40745;SDS011;26454;51.164;4.488;2023-08-17T12:16:25;14.68;;;10.80;;
40745;SDS011;26454;51.164;4.488;2023-08-17T12:18:51;13.45;;;12.02;;
40745;SDS011;26454;51.164;4.488;2023-08-17T12:21:19;16.50;;;12.65;;
40745;SDS011;26454;51.164;4.488;2023-08-17T12:23:46;14.63;;;12.43;;
40745;SDS011;26454;51.164;4.488;2023-08-17T12:26:21;14.32;;;12.82;;
40745;SDS011;26454;51.164;4.488;2023-08-17T12:28:48;15.45;;;12.02;;
40745;SDS011;26454;51.164;4.488;2023-08-17T12:31:14;15.45;;;13.25;;
40745;SDS011;26454;51.164;4.488;2023-08-17T12:33:46;18.17;;;12.88;;
40745;SDS011;26454;51.164;4.488;2023-08-17T12:36:12;15.93;;;10.35;;
40745;SDS011;26454;51.164;4.488;2023-08-17T12:38:38;13.18;;;10.57;;
40745;SDS011;26454;51.164;4.488;2023-08-17T12:41:09;18.08;;;12.43;;
40745;SDS011;26454;51.164;4.488;2023-08-17T12:43:37;14.77;;;12.68;;
40745;SDS011;26454;51.164;4.488;2023-08-17T12:46:03;13.15;;;10.98;;
40745;SDS011;26454;51.164;4.488;2023-08-17T12:48:29;10.88;;;9.25;;
40745;SDS011;26454;51.164;4.488;2023-08-17T12:50:55;16.38;;;11.18;;
40745;SDS011;26454;51.164;4.488;2023-08-17T12:53:21;10.50;;;9.32;;
40745;SDS011;26454;51.164;4.488;2023-08-17T12:55:47;10.75;;;9.70;;
40745;SDS011;26454;51.164;4.488;2023-08-17T12:58:14;13.52;;;9.82;;
40745;SDS011;26454;51.164;4.488;2023-08-17T13:00:40;12.20;;;9.10;;
40745;SDS011;26454;51.164;4.488;2023-08-17T13:03:06;14.13;;;9.13;;
40745;SDS011;26454;51.164;4.488;2023-08-17T13:05:32;9.05;;;7.45;;
40745;SDS011;26454;51.164;4.488;2023-08-17T13:07:58;12.45;;;9.32;;
40745;SDS011;26454;51.164;4.488;2023-08-17T13:10:25;13.15;;;8.73;;
40745;SDS011;26454;51.164;4.488;2023-08-17T13:12:51;10.98;;;9.73;;
40745;SDS011;26454;51.164;4.488;2023-08-17T13:15:20;9.82;;;8.52;;
40745;SDS011;26454;51.164;4.488;2023-08-17T13:17:47;11.40;;;9.15;;
40745;SDS011;26454;51.164;4.488;2023-08-17T13:20:13;10.68;;;9.30;;
40745;SDS011;26454;51.164;4.488;2023-08-17T13:22:39;14.88;;;9.27;;
40745;SDS011;26454;51.164;4.488;2023-08-17T13:25:05;12.35;;;9.15;;
40745;SDS011;26454;51.164;4.488;2023-08-17T13:27:31;11.43;;;9.73;;
40745;SDS011;26454;51.164;4.488;2023-08-17T13:29:57;13.25;;;9.95;;
40745;SDS011;26454;51.164;4.488;2023-08-17T13:32:24;13.20;;;9.02;;
40745;SDS011;26454;51.164;4.488;2023-08-17T13:34:50;9.82;;;8.20;;
40745;SDS011;26454;51.164;4.488;2023-08-17T13:37:16;12.55;;;9.07;;
40745;SDS011;26454;51.164;4.488;2023-08-17T13:39:42;27.95;;;10.38;;
40745;SDS011;26454;51.164;4.488;2023-08-17T13:42:09;11.52;;;8.45;;
40745;SDS011;26454;51.164;4.488;2023-08-17T13:44:35;13.45;;;9.60;;
40745;SDS011;26454;51.164;4.488;2023-08-17T13:47:01;14.25;;;9.73;;
40745;SDS011;26454;51.164;4.488;2023-08-17T13:49:27;13.02;;;8.95;;
40745;SDS011;26454;51.164;4.488;2023-08-17T13:51:53;13.43;;;10.18;;
40745;SDS011;26454;51.164;4.488;2023-08-17T13:54:21;10.27;;;8.73;;
40745;SDS011;26454;51.164;4.488;2023-08-17T13:56:47;14.13;;;9.73;;
40745;SDS011;26454;51.164;4.488;2023-08-17T13:59:13;14.93;;;9.38;;
40745;SDS011;26454;51.164;4.488;2023-08-17T14:01:39;12.60;;;8.95;;
40745;SDS011;26454;51.164;4.488;2023-08-17T14:04:06;12.32;;;9.30;;
40745;SDS011;26454;51.164;4.488;2023-08-17T14:06:36;15.13;;;9.23;;
40745;SDS011;26454;51.164;4.488;2023-08-17T14:09:02;17.83;;;10.00;;
40745;SDS011;26454;51.164;4.488;2023-08-17T14:11:29;13.15;;;8.82;;
40745;SDS011;26454;51.164;4.488;2023-08-17T14:13:55;12.07;;;9.52;;
40745;SDS011;26454;51.164;4.488;2023-08-17T14:16:21;10.85;;;9.10;;
40745;SDS011;26454;51.164;4.488;2023-08-17T14:18:47;14.85;;;9.98;;
40745;SDS011;26454;51.164;4.488;2023-08-17T14:21:13;15.80;;;10.43;;
40745;SDS011;26454;51.164;4.488;2023-08-17T14:23:39;15.88;;;10.52;;
40745;SDS011;26454;51.164;4.488;2023-08-17T14:26:06;12.52;;;10.20;;
40745;SDS011;26454;51.164;4.488;2023-08-17T14:28:32;19.08;;;10.98;;
40745;SDS011;26454;51.164;4.488;2023-08-17T14:30:58;13.52;;;10.27;;
40745;SDS011;26454;51.164;4.488;2023-08-17T14:33:24;16.48;;;10.52;;
40745;SDS011;26454;51.164;4.488;2023-08-17T14:35:50;19.58;;;11.57;;
40745;SDS011;26454;51.164;4.488;2023-08-17T14:38:16;15.07;;;10.20;;
40745;SDS011;26454;51.164;4.488;2023-08-17T14:40:43;13.35;;;11.05;;
40745;SDS011;26454;51.164;4.488;2023-08-17T14:43:10;21.58;;;12.05;;
40745;SDS011;26454;51.164;4.488;2023-08-17T14:45:38;15.65;;;10.63;;
40745;SDS011;26454;51.164;4.488;2023-08-17T14:48:04;15.25;;;10.77;;
40745;SDS011;26454;51.164;4.488;2023-08-17T14:50:30;20.50;;;12.13;;
40745;SDS011;26454;51.164;4.488;2023-08-17T14:52:56;19.00;;;11.75;;